createdAt,value
2018-12-03T00:01:26.343Z,74.20
2018-12-03T00:03:58.768Z,74.20
2018-12-03T00:06:28.115Z,74.20
2018-12-03T00:08:57.357Z,74.20
2018-12-03T00:11:26.620Z,74.20
2018-12-03T00:13:55.931Z,74.20
2018-12-03T00:16:25.192Z,74.20
2018-12-03T00:18:54.539Z,74.20
2018-12-03T00:21:23.833Z,74.30
2018-12-03T00:23:53.184Z,74.20
2018-12-03T00:26:22.445Z,74.20
2018-12-03T00:28:51.753Z,74.20
2018-12-03T00:31:21.022Z,74.20
2018-12-03T00:33:50.195Z,74.30
2018-12-03T00:36:19.864Z,74.30
2018-12-03T00:38:49.077Z,74.30
2018-12-03T00:41:19.009Z,74.30
2018-12-03T00:43:48.260Z,74.30
2018-12-03T00:46:17.689Z,74.40
2018-12-03T00:48:47.314Z,74.40
2018-12-03T00:51:16.708Z,74.40
2018-12-03T00:53:45.987Z,74.50
2018-12-03T00:56:16.234Z,74.50
2018-12-03T00:58:46.541Z,74.60
2018-12-03T01:01:15.839Z,74.60
2018-12-03T01:03:45.188Z,74.70
2018-12-03T01:06:15.157Z,74.80
2018-12-03T01:08:44.938Z,74.80
2018-12-03T01:11:14.205Z,74.90
2018-12-03T01:13:43.509Z,74.90
2018-12-03T01:16:12.767Z,74.50
2018-12-03T01:18:41.955Z,75.10
2018-12-03T01:21:11.359Z,75.10
2018-12-03T01:23:40.567Z,75.20
2018-12-03T01:26:09.766Z,75.20
2018-12-03T01:28:39.008Z,75.20
2018-12-03T01:31:08.307Z,75.30
2018-12-03T01:33:37.467Z,75.30
2018-12-03T01:36:07.076Z,75.30
2018-12-03T01:38:36.541Z,75.30
2018-12-03T01:41:06.508Z,75.30
2018-12-03T01:43:35.786Z,75.30
2018-12-03T01:46:05.000Z,75.30
2018-12-03T01:48:34.324Z,75.30
2018-12-03T01:51:03.523Z,75.40
2018-12-03T01:53:32.759Z,75.40
2018-12-03T01:56:01.997Z,75.40
2018-12-03T01:58:31.288Z,75.40
2018-12-03T02:01:00.454Z,75.50
2018-12-03T02:03:29.654Z,75.50
2018-12-03T02:05:58.976Z,75.70
2018-12-03T02:08:28.388Z,75.70
2018-12-03T02:10:57.689Z,75.70
2018-12-03T02:13:26.948Z,75.80
2018-12-03T02:15:56.270Z,75.80
2018-12-03T02:18:25.685Z,75.80
2018-12-03T02:20:54.978Z,76.00
2018-12-03T02:23:24.277Z,76.00
2018-12-03T02:25:53.738Z,76.10
2018-12-03T02:28:23.079Z,76.10
2018-12-03T02:30:52.419Z,76.10
2018-12-03T02:33:21.654Z,76.20
2018-12-03T02:35:50.916Z,76.30
2018-12-03T02:38:20.201Z,76.30
2018-12-03T02:40:49.551Z,76.40
2018-12-03T02:43:18.810Z,76.40
2018-12-03T02:45:48.106Z,76.50
2018-12-03T02:48:17.880Z,76.50
2018-12-03T02:50:47.245Z,76.70
2018-12-03T02:53:16.638Z,76.70
2018-12-03T02:55:46.345Z,76.70
2018-12-03T02:58:15.819Z,76.70
2018-12-03T03:00:46.329Z,76.80
2018-12-03T03:03:14.680Z,76.80
2018-12-03T03:05:44.082Z,76.80
2018-12-03T03:08:13.419Z,77.00
2018-12-03T03:10:43.127Z,77.00
2018-12-03T03:13:12.448Z,76.90
2018-12-03T03:15:41.660Z,77.10
2018-12-03T03:18:10.960Z,77.10
2018-12-03T03:20:40.326Z,77.10
2018-12-03T03:23:09.615Z,77.10
2018-12-03T03:25:38.874Z,77.10
2018-12-03T03:28:08.181Z,77.20
2018-12-03T03:30:37.485Z,77.20
2018-12-03T03:33:06.916Z,77.20
2018-12-03T03:35:36.412Z,77.20
2018-12-03T03:38:05.704Z,77.20
2018-12-03T03:40:35.007Z,77.30
2018-12-03T03:43:04.285Z,77.30
2018-12-03T03:45:33.798Z,77.30
2018-12-03T03:48:02.987Z,77.30
2018-12-03T03:50:32.284Z,77.30
2018-12-03T03:53:01.393Z,77.40
2018-12-03T03:55:30.725Z,77.30
2018-12-03T03:57:59.971Z,77.40
2018-12-03T04:00:29.117Z,77.40
2018-12-03T04:02:58.259Z,77.40
2018-12-03T04:05:27.622Z,77.40
2018-12-03T04:07:56.811Z,77.50
2018-12-03T04:10:26.102Z,77.50
2018-12-03T04:12:55.521Z,77.60
2018-12-03T04:15:24.963Z,77.60
2018-12-03T04:17:54.201Z,77.70
2018-12-03T04:20:23.409Z,77.70
2018-12-03T04:22:54.109Z,77.70
2018-12-03T04:25:23.451Z,77.80
2018-12-03T04:27:52.831Z,77.80
2018-12-03T04:30:23.134Z,78.00
2018-12-03T04:32:53.417Z,78.00
2018-12-03T04:35:23.787Z,78.00
2018-12-03T04:37:53.085Z,78.00
2018-12-03T04:40:22.496Z,78.20
2018-12-03T04:42:51.724Z,78.20
2018-12-03T04:45:20.919Z,78.20
2018-12-03T04:47:50.825Z,78.30
2018-12-03T04:50:21.098Z,78.40
2018-12-03T04:52:50.313Z,78.40
2018-12-03T04:55:20.576Z,78.40
2018-12-03T04:57:50.105Z,78.50
2018-12-03T05:00:20.578Z,78.50
2018-12-03T05:02:55.453Z,78.50
2018-12-03T05:05:24.740Z,78.60
2018-12-03T05:07:53.943Z,78.60
2018-12-03T05:10:23.542Z,78.70
2018-12-03T05:12:54.033Z,78.60
2018-12-03T05:15:23.438Z,78.80
2018-12-03T05:17:52.852Z,78.80
2018-12-03T05:20:23.748Z,78.90
2018-12-03T05:22:53.073Z,79.00
2018-12-03T05:25:22.349Z,79.00
2018-12-03T05:27:51.771Z,79.10
2018-12-03T05:30:20.990Z,79.20
2018-12-03T05:32:50.328Z,79.20
2018-12-03T05:35:22.889Z,79.20
2018-12-03T05:37:52.562Z,79.30
2018-12-03T05:40:24.145Z,79.40
2018-12-03T05:42:53.696Z,79.40
2018-12-03T05:45:23.112Z,79.40
2018-12-03T05:47:52.435Z,79.40
2018-12-03T05:50:21.707Z,79.50
2018-12-03T05:52:52.085Z,79.50
2018-12-03T05:55:21.843Z,79.50
2018-12-03T05:57:51.725Z,79.50
2018-12-03T06:00:23.689Z,80.10
2018-12-03T06:02:53.498Z,79.60
2018-12-03T06:05:22.733Z,79.60
2018-12-03T06:07:51.952Z,79.60
2018-12-03T06:10:22.229Z,79.50
2018-12-03T06:12:51.525Z,79.50
2018-12-03T06:15:21.624Z,79.50
2018-12-03T06:17:53.183Z,79.50
2018-12-03T06:20:24.651Z,79.50
2018-12-03T06:22:55.164Z,79.50
2018-12-03T06:25:28.005Z,79.60
2018-12-03T06:27:57.362Z,79.60
2018-12-03T06:30:27.981Z,79.70
2018-12-03T06:32:57.335Z,79.80
2018-12-03T06:35:26.624Z,79.80
2018-12-03T06:37:55.929Z,79.80
2018-12-03T06:40:28.048Z,80.00
2018-12-03T06:42:57.260Z,80.00
2018-12-03T06:45:27.356Z,80.10
2018-12-03T06:47:59.184Z,80.10
2018-12-03T06:50:28.493Z,80.20
2018-12-03T06:52:57.848Z,80.20
2018-12-03T06:55:27.467Z,80.40
2018-12-03T06:57:57.476Z,80.50
2018-12-03T07:00:27.266Z,80.50
2018-12-03T07:02:56.615Z,80.60
2018-12-03T07:05:25.980Z,80.70
2018-12-03T07:07:56.893Z,80.60
2018-12-03T07:10:26.494Z,80.70
2018-12-03T07:13:01.436Z,80.70
2018-12-03T07:15:33.429Z,80.80
2018-12-03T07:18:02.838Z,80.80
2018-12-03T07:20:32.101Z,80.80
2018-12-03T07:23:01.398Z,80.80
2018-12-03T07:25:30.717Z,80.80
2018-12-03T07:27:59.958Z,80.90
2018-12-03T07:30:30.266Z,80.90
2018-12-03T07:32:59.641Z,80.80
2018-12-03T07:35:28.910Z,80.80
2018-12-03T07:37:59.032Z,80.70
2018-12-03T07:40:29.372Z,80.80
2018-12-03T07:42:58.646Z,80.80
2018-12-03T07:45:27.923Z,80.70
2018-12-03T07:47:57.408Z,80.70
2018-12-03T07:50:26.880Z,80.70
2018-12-03T07:52:56.278Z,80.80
2018-12-03T07:55:27.436Z,80.80
2018-12-03T07:58:05.136Z,80.80
2018-12-03T08:00:37.990Z,80.70
2018-12-03T08:03:07.823Z,80.70
2018-12-03T08:05:37.817Z,80.70
2018-12-03T08:08:08.450Z,80.70
2018-12-03T08:10:38.233Z,81.00
2018-12-03T08:13:10.430Z,80.60
2018-12-03T08:15:39.901Z,80.70
2018-12-03T08:18:11.192Z,80.70
2018-12-03T08:20:50.381Z,80.60
2018-12-03T08:23:39.144Z,80.60
2018-12-03T08:26:10.111Z,80.60
2018-12-03T08:28:40.730Z,80.50
2018-12-03T08:31:10.307Z,80.50
2018-12-03T08:33:39.863Z,80.50
2018-12-03T08:36:09.673Z,80.40
2018-12-03T08:38:39.464Z,80.40
2018-12-03T08:41:08.498Z,80.50
2018-12-03T08:43:37.897Z,80.50
2018-12-03T08:46:09.470Z,80.40
2018-12-03T08:48:42.339Z,80.30
2018-12-03T08:51:16.316Z,80.30
2018-12-03T08:53:47.765Z,80.30
2018-12-03T08:56:20.421Z,80.20
2018-12-03T08:58:49.930Z,80.20
2018-12-03T09:01:22.147Z,80.20
2018-12-03T09:05:01.496Z,80.20
2018-12-03T09:07:36.453Z,80.20
2018-12-03T09:10:21.837Z,80.10
2018-12-03T09:12:55.995Z,80.10
2018-12-03T09:15:31.981Z,80.20
2018-12-03T09:18:02.856Z,80.30
2018-12-03T09:20:32.298Z,80.30
2018-12-03T09:23:02.192Z,80.30
2018-12-03T09:25:49.100Z,80.30
2018-12-03T09:28:20.702Z,80.00
2018-12-03T09:31:03.778Z,80.20
2018-12-03T09:33:35.943Z,80.20
2018-12-03T09:40:07.505Z,80.90
2018-12-03T09:42:48.906Z,80.30
2018-12-03T09:45:20.223Z,80.10
2018-12-03T09:47:54.241Z,80.10
2018-12-03T09:50:29.316Z,80.00
2018-12-03T09:53:18.087Z,79.90
2018-12-03T09:55:48.038Z,80.00
2018-12-03T09:58:25.037Z,79.70
2018-12-03T10:00:54.716Z,79.70
2018-12-03T10:03:26.423Z,79.50
2018-12-03T10:05:58.499Z,79.50
2018-12-03T10:08:31.066Z,79.40
2018-12-03T10:11:01.807Z,79.40
2018-12-03T10:13:34.708Z,79.20
2018-12-03T10:16:04.470Z,79.10
2018-12-03T10:18:34.079Z,79.10
2018-12-03T10:21:10.406Z,79.10
2018-12-03T10:23:40.193Z,79.20
2018-12-03T10:26:11.591Z,79.10
2018-12-03T10:28:41.060Z,79.10
2018-12-03T10:31:14.827Z,79.10
2018-12-03T10:33:44.919Z,79.20
2018-12-03T10:36:14.889Z,79.10
2018-12-03T10:38:46.639Z,79.10
2018-12-03T10:41:26.332Z,79.00
2018-12-03T10:43:58.081Z,78.90
2018-12-03T10:46:27.881Z,78.90
2018-12-03T10:49:03.893Z,78.90
2018-12-03T10:51:33.278Z,78.90
2018-12-03T10:54:02.989Z,78.90
2018-12-03T10:56:32.571Z,78.80
2018-12-03T10:59:01.934Z,78.90
2018-12-03T11:01:40.025Z,78.90
2018-12-03T11:04:14.462Z,78.90
2018-12-03T11:06:44.034Z,78.90
2018-12-03T11:09:23.104Z,78.80
2018-12-03T11:11:53.038Z,78.80
2018-12-03T11:14:22.479Z,78.80
2018-12-03T11:16:51.982Z,78.90
2018-12-03T11:19:21.488Z,78.80
2018-12-03T11:21:51.155Z,78.80
2018-12-03T11:24:20.659Z,78.70
2018-12-03T11:26:52.020Z,78.60
2018-12-03T11:29:26.912Z,78.60
2018-12-03T11:31:58.507Z,78.60
2018-12-03T11:34:34.731Z,78.50
2018-12-03T11:37:04.309Z,78.60
2018-12-03T11:39:44.018Z,78.50
2018-12-03T11:42:14.044Z,78.50
2018-12-03T11:44:44.119Z,78.40
2018-12-03T11:47:13.698Z,78.40
2018-12-03T11:52:27.450Z,78.50
2018-12-03T11:54:58.562Z,78.10
2018-12-03T11:57:28.009Z,79.00
2018-12-03T12:00:00.840Z,78.30
2018-12-03T12:02:50.301Z,78.40
2018-12-03T12:05:37.104Z,78.40
2018-12-03T12:08:14.739Z,78.40
2018-12-03T12:10:44.243Z,78.40
2018-12-03T12:13:29.017Z,78.30
2018-12-03T12:16:00.387Z,78.40
2018-12-03T12:18:31.435Z,79.10
2018-12-03T12:21:02.615Z,78.30
2018-12-03T12:23:32.186Z,79.10
2018-12-03T12:26:01.655Z,78.40
2018-12-03T12:28:31.447Z,78.40
2018-12-03T12:31:00.918Z,78.50
2018-12-03T12:33:32.049Z,78.50
2018-12-03T12:36:02.086Z,78.60
2018-12-03T12:38:35.261Z,78.60
2018-12-03T12:41:13.838Z,78.70
2018-12-03T12:43:43.223Z,78.70
2018-12-03T12:46:16.482Z,78.80
2018-12-03T12:48:46.531Z,78.80
2018-12-03T12:51:24.726Z,78.80
2018-12-03T12:53:54.073Z,78.90
2018-12-03T12:56:23.613Z,78.90
2018-12-03T12:59:18.814Z,78.90
2018-12-03T13:02:19.649Z,79.00
2018-12-03T13:04:51.313Z,79.00
2018-12-03T13:07:26.363Z,79.00
2018-12-03T13:09:56.011Z,79.00
2018-12-03T13:12:27.524Z,79.20
2018-12-03T13:14:57.681Z,79.20
2018-12-03T13:17:28.256Z,79.20
2018-12-03T13:19:57.703Z,79.30
2018-12-03T13:22:38.245Z,79.30
2018-12-03T13:25:11.453Z,79.40
2018-12-03T13:27:41.619Z,79.40
2018-12-03T13:30:17.407Z,79.30
2018-12-03T13:32:47.983Z,79.50
2018-12-03T13:35:18.419Z,79.50
2018-12-03T13:37:47.957Z,79.50
2018-12-03T13:40:20.744Z,79.60
2018-12-03T13:42:50.354Z,79.60
2018-12-03T13:45:27.343Z,79.60
2018-12-03T13:48:11.612Z,79.60
2018-12-03T13:50:47.465Z,79.70
2018-12-03T13:53:24.864Z,79.60
2018-12-03T13:55:55.567Z,79.60
2018-12-03T13:58:34.396Z,79.70
2018-12-03T14:01:15.066Z,79.70
2018-12-03T14:09:34.639Z,79.50
2018-12-03T14:12:13.899Z,79.70
2018-12-03T14:15:05.277Z,79.80
2018-12-03T14:17:43.489Z,79.80
2018-12-03T14:20:13.878Z,79.80
2018-12-03T14:22:52.171Z,80.00
2018-12-03T14:25:22.403Z,80.00
2018-12-03T14:27:53.153Z,80.00
2018-12-03T14:30:22.836Z,80.00
2018-12-03T14:32:56.681Z,80.00
2018-12-03T14:35:27.831Z,80.00
2018-12-03T14:38:17.219Z,80.00
2018-12-03T14:41:00.514Z,80.00
2018-12-03T14:43:48.744Z,80.10
2018-12-03T14:46:22.574Z,80.10
2018-12-03T14:49:05.421Z,80.10
2018-12-03T14:51:41.539Z,80.10
2018-12-03T14:57:22.901Z,80.20
2018-12-03T15:00:03.889Z,80.20
2018-12-03T15:02:41.007Z,80.20
2018-12-03T15:05:24.827Z,80.20
2018-12-03T15:08:01.902Z,80.30
2018-12-03T15:10:34.683Z,80.30
2018-12-03T15:13:11.066Z,80.30
2018-12-03T15:15:46.225Z,80.30
2018-12-03T15:18:23.600Z,80.50
2018-12-03T15:30:08.101Z,80.40
2018-12-03T15:32:44.368Z,80.30
2018-12-03T15:35:30.073Z,80.40
2018-12-03T15:38:15.714Z,80.40
2018-12-03T15:40:57.489Z,80.50
2018-12-03T15:43:28.696Z,80.50
2018-12-03T15:48:54.991Z,80.60
2018-12-03T15:51:27.179Z,80.70
2018-12-03T15:54:08.289Z,80.60
2018-12-03T15:56:41.328Z,80.70
2018-12-03T15:59:30.241Z,80.70
2018-12-03T16:02:06.499Z,80.70
2018-12-03T16:04:51.170Z,80.70
2018-12-03T16:16:57.860Z,80.60
2018-12-03T16:19:49.391Z,80.60
2018-12-03T16:22:33.571Z,80.80
2018-12-03T16:25:25.101Z,80.70
2018-12-03T16:30:58.030Z,80.80
2018-12-03T16:34:09.105Z,80.80
2018-12-03T16:36:51.250Z,80.80
2018-12-03T16:39:29.101Z,80.80
2018-12-03T16:42:16.358Z,80.90
2018-12-03T16:45:01.785Z,80.90
2018-12-03T16:50:44.927Z,81.00
2018-12-03T16:53:21.952Z,81.00
2018-12-03T16:59:18.704Z,81.00
2018-12-03T17:01:52.199Z,81.00
2018-12-03T17:04:30.311Z,81.00
2018-12-03T17:07:06.562Z,81.00
2018-12-03T17:09:36.394Z,80.00
2018-12-03T17:12:06.756Z,80.00
2018-12-03T17:14:40.919Z,80.00
2018-12-03T17:17:24.864Z,80.00
2018-12-03T17:20:15.663Z,80.00
2018-12-03T17:23:12.063Z,80.00
2018-12-03T17:26:05.509Z,80.00
2018-12-03T17:28:39.997Z,79.90
2018-12-03T17:37:25.484Z,79.90
2018-12-03T17:40:19.783Z,79.90
2018-12-03T17:43:19.922Z,80.00
2018-12-03T17:46:11.229Z,79.90
2018-12-03T17:49:00.681Z,79.90
2018-12-03T17:51:36.980Z,79.90
2018-12-03T17:54:18.224Z,80.00
2018-12-03T17:56:49.122Z,79.90
2018-12-03T17:59:23.263Z,79.90
2018-12-03T18:02:01.620Z,79.90
2018-12-03T18:04:37.799Z,79.90
2018-12-03T18:07:11.458Z,79.90
2018-12-03T18:09:51.675Z,80.30
2018-12-03T18:12:27.340Z,79.90
2018-12-03T18:36:41.087Z,79.70
2018-12-03T18:39:15.019Z,79.90
2018-12-03T18:41:46.191Z,80.00
2018-12-03T18:44:35.738Z,80.10
2018-12-03T18:47:14.320Z,80.20
2018-12-03T18:49:50.132Z,80.10
2018-12-03T18:55:21.755Z,80.10
2018-12-03T19:01:38.860Z,80.10
2018-12-03T19:10:37.116Z,79.90
2018-12-03T19:13:10.816Z,80.00
2018-12-03T19:15:48.152Z,80.00
2018-12-03T19:18:17.813Z,80.00
2018-12-03T19:20:58.417Z,80.00
2018-12-03T19:23:27.761Z,80.00
2018-12-03T19:25:57.187Z,80.00
2018-12-03T19:28:26.878Z,80.00
2018-12-03T19:30:58.359Z,80.70
2018-12-03T19:33:30.178Z,80.00
2018-12-03T19:35:59.702Z,80.00
2018-12-03T19:39:04.018Z,80.10
2018-12-03T19:41:36.646Z,80.10
2018-12-03T19:44:07.407Z,80.10
2018-12-03T19:46:38.072Z,80.10
2018-12-03T19:49:07.615Z,80.00
2018-12-03T19:51:37.195Z,80.00
2018-12-03T19:54:09.873Z,80.00
2018-12-03T19:56:39.908Z,80.00
2018-12-03T19:59:15.487Z,79.90
2018-12-03T20:01:51.216Z,80.00
2018-12-03T20:04:30.742Z,79.90
2018-12-03T20:07:02.236Z,79.80
2018-12-03T20:09:35.032Z,79.80
2018-12-03T20:12:05.118Z,79.90
2018-12-03T20:14:40.783Z,79.80
2018-12-03T20:17:11.200Z,79.80
2018-12-03T20:19:40.806Z,79.70
2018-12-03T20:22:11.387Z,79.70
2018-12-03T20:24:44.103Z,79.70
2018-12-03T20:27:23.730Z,79.70
2018-12-03T20:30:08.539Z,79.70
2018-12-03T20:32:54.750Z,79.70
2018-12-03T20:38:15.212Z,79.70
2018-12-03T20:40:52.400Z,79.70
2018-12-03T20:43:27.234Z,79.70
2018-12-03T20:46:06.764Z,79.80
2018-12-03T20:48:48.313Z,79.90
2018-12-03T20:51:42.455Z,79.90
2018-12-03T20:54:16.407Z,79.90
2018-12-03T20:56:49.298Z,79.90
2018-12-03T20:59:21.884Z,79.80
2018-12-03T21:01:54.683Z,79.80
2018-12-03T21:04:24.136Z,79.70
2018-12-03T21:06:57.107Z,79.70
2018-12-03T21:09:33.869Z,79.70
2018-12-03T21:12:08.580Z,79.70
2018-12-03T21:14:37.990Z,79.60
2018-12-03T21:17:10.853Z,79.50
2018-12-03T21:19:47.485Z,79.50
2018-12-03T21:22:25.280Z,79.40
2018-12-03T21:24:54.617Z,79.40
2018-12-03T21:27:29.273Z,79.40
2018-12-03T21:30:10.183Z,79.40
2018-12-03T21:32:48.485Z,79.30
2018-12-03T21:35:21.370Z,80.30
2018-12-03T21:37:55.323Z,80.30
2018-12-03T21:40:28.313Z,80.30
2018-12-03T21:43:01.458Z,80.30
2018-12-03T21:45:34.489Z,80.30
2018-12-03T21:48:06.808Z,80.30
2018-12-03T21:50:40.215Z,80.30
2018-12-03T21:53:15.237Z,80.20
2018-12-03T21:55:48.925Z,80.30
2018-12-03T21:58:22.032Z,80.30
2018-12-03T22:00:58.105Z,80.20
2018-12-03T22:03:31.049Z,80.20
2018-12-03T22:06:03.995Z,80.10
2018-12-03T22:08:37.889Z,80.10
2018-12-03T22:11:10.853Z,80.10
2018-12-03T22:13:44.126Z,80.00
2018-12-03T22:16:17.306Z,80.00
2018-12-03T22:18:50.092Z,79.90
2018-12-03T22:21:23.761Z,80.00
2018-12-03T22:23:59.048Z,79.90
2018-12-03T22:26:38.680Z,79.90
2018-12-03T22:29:12.073Z,79.90
2018-12-03T22:31:44.987Z,79.90
2018-12-03T22:34:22.862Z,79.80
2018-12-03T22:36:54.988Z,79.80
2018-12-03T22:39:28.690Z,79.80
2018-12-03T22:42:03.731Z,79.80
2018-12-03T22:44:36.407Z,79.80
2018-12-03T22:47:10.130Z,79.80
2018-12-03T22:49:48.375Z,79.70
2018-12-03T22:52:21.122Z,79.70
2018-12-03T22:54:54.603Z,79.70
2018-12-03T22:57:29.118Z,79.70
2018-12-03T23:00:04.399Z,79.70
2018-12-03T23:02:36.827Z,79.70
2018-12-03T23:05:09.898Z,79.70
2018-12-03T23:07:42.687Z,79.70
2018-12-03T23:10:18.153Z,79.60
2018-12-03T23:12:51.544Z,79.60
2018-12-03T23:15:26.865Z,79.60
2018-12-03T23:18:01.844Z,79.60
2018-12-03T23:20:34.554Z,79.70
2018-12-03T23:23:07.707Z,79.70
2018-12-03T23:25:41.882Z,79.90
2018-12-03T23:28:15.985Z,80.00
2018-12-03T23:30:51.274Z,80.10
2018-12-03T23:33:24.057Z,80.00
2018-12-03T23:35:56.936Z,80.00
2018-12-03T23:38:29.611Z,80.10
2018-12-03T23:41:02.487Z,80.10
2018-12-03T23:43:35.483Z,80.00
2018-12-03T23:46:08.429Z,80.10
2018-12-03T23:48:41.519Z,80.10
2018-12-03T23:51:16.818Z,80.90
2018-12-03T23:53:49.850Z,80.70
2018-12-03T23:56:22.599Z,80.20
2018-12-03T23:58:57.376Z,80.20
